Hlavní strana
METAR-TAF:

METAR-TAF

Letiště :

Gafsa, Tunisko

zeměpisná šířka: 34-25N, zeměpisná délka: 008-49E, výška: 313 m

Aktuální stav počasí

Zpráva byla vytvořena před 42 minutami, v 19:00 UTC
Jižní vítr 13 kt
Teplota 20°C
Vlhkost vzduchu 40%
Tlak 1020 hPa
Viditelnost 10 km a více
Polojasno ve výšce 2600 ft

METAR: DTTF 131900Z 17013KT 9999 SCT026 20/06 Q1020 NOSIG

Čas: 20:42 (19:42 UTC)

Předpověď počasí

Zpráva byla vytvořena před 1 hodinou a 42 minutami, v 18:00 UTC
Předpověď platná od 13 v 19 UTC do 14 v 04 UTC
Západojihozápadní vítr 8 kt
Viditelnost 10 km a více
Polojasno ve výšce 2600 ft
Změna
od 13 v 19 UTC do 13 v 21 UTC
Jihovýchodní vítr 10 kt

TAF: DTTF 131800Z 1319/1404 24008KT 9999 SCT026 BECMG 1319/1321 14010KT

Stav a předpovědi počasí z více než 4 000 letišť (zprávy METAR a TAF).

Červené a žluté tečky na mapě představují dostupné meteorologické stanice.

Když kurzor umístíte na tečku, zobrazí se název stanice.

Pak kliknutím zobrazíte stav a předpověď počasí.

Chcete-li změnit mapu, kliknutím na zelené tlačítko se znaménkem +mapu přiblížíte, kliknutím na zelené tlačítko se znaménkem – mapu oddálíte a kliknutím na zelené šipky přejdete na sousední mapy.


METAR-TAF: